Time;durP1;ratioP1;P1;durP2;ratioP2;P2;SDS_P1;SDS_P2;PMS_P1;PMS_P2;Temp;Humidity;BMP_temperature;BMP_pressure;BME280_temperature;BME280_humidity;BME280_pressure;Samples;Min_cycle;Max_cycle;Signal;HPM_P1;HPM_P2
2023/08/29 00:02:08;;;;;;;;;;;;;;;;;;2218528;58;2066;-26
2023/08/29 00:04:39;;;;;;;;;;;;;;;;;;2219535;66;2018;-27
2023/08/29 00:07:09;;;;;;;;;;;;;;;;;;2214267;66;1908;-27
2023/08/29 00:09:39;;;;;;;;;;;;;;;;;;2218975;66;1943;-27
2023/08/29 00:12:10;;;;;;;;;;;;;;;;;;2214550;58;2054;-27
2023/08/29 00:14:40;;;;;;;;;;;;;;;;;;2219526;66;2965;-27
2023/08/29 00:17:10;;;;;;;;;;;;;;;;;;2218261;66;2601;-27
2023/08/29 00:19:40;;;;;;;;;;;;;;;;;;2215125;66;1804;-27
2023/08/29 00:22:11;;;;;;;;;;;;;;;;;;2218730;66;2653;-27
2023/08/29 00:24:44;;;;;;;;;;;;;;;;;;2219165;59;2011;-27
2023/08/29 00:27:14;;;;;;;;;;;;;;;;;;2218765;58;2497;-26
2023/08/29 00:29:45;;;;;;;;;;;;;;;;;;2220736;58;1861;-27
2023/08/29 00:32:15;;;;;;;;;;;;;;;;;;2219711;58;1927;-27
2023/08/29 00:34:45;;;;;;;;;;;;;;;;;;2219403;66;1980;-27
2023/08/29 00:37:15;;;;;;;;;;;;;;;;;;2218403;58;1760;-27
2023/08/29 00:39:46;;;;;;;;;;;;;;;;;;2215337;66;1868;-27
2023/08/29 00:42:16;;;;;;;;;;;;;;;;;;2218928;66;1802;-27
2023/08/29 00:44:46;;;;;;;;;;;;;;;;;;2218554;58;1628;-27
2023/08/29 00:47:16;;;;;;;;;;;;;;;;;;2218374;58;2483;-27
2023/08/29 00:49:47;;;;;;;;;;;;;;;;;;2218075;58;2448;-27
2023/08/29 00:52:17;;;;;;;;;;;;;;;;;;2218573;58;3022;-26
2023/08/29 00:54:47;;;;;;;;;;;;;;;;;;2218648;66;1813;-27
2023/08/29 00:57:17;;;;;;;;;;;;;;;;;;2218823;58;1926;-27
2023/08/29 00:59:48;;;;;;;;;;;;;;;;;;2218582;58;1939;-26
2023/08/29 01:02:19;;;;;;;;;;;;;;;;;;2217126;66;1940;-27
2023/08/29 01:04:53;;;;;;;;;;;;;;;;;;2215962;58;2067;-27
2023/08/29 01:07:23;;;;;;;;;;;;;;;;;;2218103;66;2390;-27
2023/08/29 01:09:53;;;;;;;;;;;;;;;;;;2218368;59;2285;-27
2023/08/29 01:12:25;;;;;;;;;;;;;;;;;;2215924;58;2561;-27
2023/08/29 01:15:00;;;;;;;;;;;;;;;;;;2218564;66;1914;-27
2023/08/29 01:17:30;;;;;;;;;;;;;;;;;;2218670;66;2704;-26
2023/08/29 01:20:01;;;;;;;;;;;;;;;;;;2214759;66;2035;-26
2023/08/29 01:22:38;;;;;;;;;;;;;;;;;;2218817;66;1869;-26
2023/08/29 01:25:26;;;;;;;;;;;;;;;;;;2218083;66;2042;-26
2023/08/29 01:27:56;;;;;;;;;;;;;;;;;;2215378;58;2665;-26
2023/08/29 01:30:27;;;;;;;;;;;;;;;;;;2218136;58;2077;-26
2023/08/29 01:32:58;;;;;;;;;;;;;;;;;;2218405;58;1671;-26
2023/08/29 01:35:28;;;;;;;;;;;;;;;;;;2215200;59;2445;-26
2023/08/29 01:37:58;;;;;;;;;;;;;;;;;;2218388;58;2590;-26
2023/08/29 01:40:29;;;;;;;;;;;;;;;;;;2219159;66;1879;-26
2023/08/29 01:42:59;;;;;;;;;;;;;;;;;;2218411;66;2142;-26
2023/08/29 01:45:29;;;;;;;;;;;;;;;;;;2215078;58;2771;-26
2023/08/29 01:47:59;;;;;;;;;;;;;;;;;;2218087;58;2062;-26
2023/08/29 01:50:31;;;;;;;;;;;;;;;;;;2218284;58;2243;-27
2023/08/29 01:53:01;;;;;;;;;;;;;;;;;;2218424;58;1851;-26
2023/08/29 01:55:33;;;;;;;;;;;;;;;;;;2218710;58;1623;-25
2023/08/29 01:58:04;;;;;;;;;;;;;;;;;;2218060;66;1861;-26
2023/08/29 02:00:35;;;;;;;;;;;;;;;;;;2214693;58;1937;-26
2023/08/29 02:03:05;;;;;;;;;;;;;;;;;;2217253;66;2379;-26
2023/08/29 02:05:35;;;;;;;;;;;;;;;;;;2218808;66;1807;-26
2023/08/29 02:08:08;;;;;;;;;;;;;;;;;;2218015;66;2246;-26
2023/08/29 02:10:39;;;;;;;;;;;;;;;;;;2217966;66;1973;-26
2023/08/29 02:13:09;;;;;;;;;;;;;;;;;;2214866;58;2543;-26
2023/08/29 02:15:39;;;;;;;;;;;;;;;;;;2218952;66;1784;-26
2023/08/29 02:18:10;;;;;;;;;;;;;;;;;;2217395;66;2382;-26
2023/08/29 02:20:40;;;;;;;;;;;;;;;;;;2218691;66;2436;-26
2023/08/29 02:23:11;;;;;;;;;;;;;;;;;;2218096;58;1648;-26
2023/08/29 02:25:43;;;;;;;;;;;;;;;;;;2218544;59;1777;-26
2023/08/29 02:28:13;;;;;;;;;;;;;;;;;;2217950;58;2375;-27
2023/08/29 02:30:43;;;;;;;;;;;;;;;;;;2218495;66;1927;-26
2023/08/29 02:33:14;;;;;;;;;;;;;;;;;;2218631;58;1826;-26
2023/08/29 02:35:47;;;;;;;;;;;;;;;;;;2217977;66;2519;-26
2023/08/29 02:38:18;;;;;;;;;;;;;;;;;;2218386;58;1646;-26
2023/08/29 02:40:49;;;;;;;;;;;;;;;;;;2220348;66;2363;-27
2023/08/29 02:43:19;;;;;;;;;;;;;;;;;;2214785;66;1799;-26
2023/08/29 02:45:50;;;;;;;;;;;;;;;;;;2218310;58;2467;-26
2023/08/29 02:48:20;;;;;;;;;;;;;;;;;;2218172;58;1586;-26
2023/08/29 02:50:51;;;;;;;;;;;;;;;;;;2214486;58;2524;-26
2023/08/29 02:53:21;;;;;;;;;;;;;;;;;;2218198;58;2053;-26
2023/08/29 02:55:52;;;;;;;;;;;;;;;;;;2215307;58;2738;-27
2023/08/29 02:58:22;;;;;;;;;;;;;;;;;;2218413;66;2584;-26
2023/08/29 03:00:59;;;;;;;;;;;;;;;;;;2219019;58;2421;-27
2023/08/29 03:03:29;;;;;;;;;;;;;;;;;;2218847;66;1735;-26
2023/08/29 03:06:00;;;;;;;;;;;;;;;;;;2215261;66;2622;-26
2023/08/29 03:08:30;;;;;;;;;;;;;;;;;;2218995;66;1989;-26
2023/08/29 03:11:07;;;;;;;;;;;;;;;;;;2216062;66;2687;-27
2023/08/29 03:13:37;;;;;;;;;;;;;;;;;;2216926;58;1670;-26
2023/08/29 03:16:17;;;;;;;;;;;;;;;;;;2219291;66;1850;-26
2023/08/29 03:18:47;;;;;;;;;;;;;;;;;;2215610;66;2631;-27
2023/08/29 03:21:17;;;;;;;;;;;;;;;;;;2218507;66;2245;-26
2023/08/29 03:23:50;;;;;;;;;;;;;;;;;;2214988;66;1924;-26
2023/08/29 03:26:21;;;;;;;;;;;;;;;;;;2215273;59;2024;-26
2023/08/29 03:28:51;;;;;;;;;;;;;;;;;;2219341;58;1869;-26
2023/08/29 03:31:21;;;;;;;;;;;;;;;;;;2218965;58;1988;-26
2023/08/29 03:33:51;;;;;;;;;;;;;;;;;;2215754;58;1796;-26
2023/08/29 03:36:22;;;;;;;;;;;;;;;;;;2219184;66;2050;-26
2023/08/29 03:38:52;;;;;;;;;;;;;;;;;;2218830;66;1784;-26
2023/08/29 03:41:22;;;;;;;;;;;;;;;;;;2215846;66;1940;-27
2023/08/29 03:43:53;;;;;;;;;;;;;;;;;;2219693;66;1971;-26
2023/08/29 03:46:23;;;;;;;;;;;;;;;;;;2218877;58;2513;-26
2023/08/29 03:48:53;;;;;;;;;;;;;;;;;;2215735;58;2011;-26
2023/08/29 03:51:23;;;;;;;;;;;;;;;;;;2218261;58;2470;-26
2023/08/29 03:53:53;;;;;;;;;;;;;;;;;;2219223;58;2570;-27
2023/08/29 03:56:24;;;;;;;;;;;;;;;;;;2218973;58;1693;-27
2023/08/29 03:58:54;;;;;;;;;;;;;;;;;;2218801;66;1863;-26
2023/08/29 04:01:24;;;;;;;;;;;;;;;;;;2219207;58;2053;-26
2023/08/29 04:03:55;;;;;;;;;;;;;;;;;;2215363;59;1738;-26
2023/08/29 04:06:26;;;;;;;;;;;;;;;;;;2218452;66;1894;-26
2023/08/29 04:08:56;;;;;;;;;;;;;;;;;;2219435;66;1333;-27
2023/08/29 04:11:26;;;;;;;;;;;;;;;;;;2218978;58;1941;-27
2023/08/29 04:13:57;;;;;;;;;;;;;;;;;;2218495;58;1804;-27
2023/08/29 04:16:30;;;;;;;;;;;;;;;;;;2219224;66;1306;-26
2023/08/29 04:19:00;;;;;;;;;;;;;;;;;;2219205;66;1929;-26
2023/08/29 04:21:31;;;;;;;;;;;;;;;;;;2219054;66;1839;-26
2023/08/29 04:24:02;;;;;;;;;;;;;;;;;;2218620;66;2215;-26
2023/08/29 04:26:32;;;;;;;;;;;;;;;;;;2216650;58;1190;-26
2023/08/29 04:29:06;;;;;;;;;;;;;;;;;;2215403;58;1726;-26
2023/08/29 04:31:39;;;;;;;;;;;;;;;;;;2218692;58;1938;-26
2023/08/29 04:34:09;;;;;;;;;;;;;;;;;;2218739;58;1943;-26
2023/08/29 04:36:39;;;;;;;;;;;;;;;;;;2219401;66;1214;-26
2023/08/29 04:39:09;;;;;;;;;;;;;;;;;;2218831;58;2038;-26
2023/08/29 04:41:39;;;;;;;;;;;;;;;;;;2219113;66;1203;-26
2023/08/29 04:44:12;;;;;;;;;;;;;;;;;;2218846;66;1676;-26
2023/08/29 04:46:43;;;;;;;;;;;;;;;;;;2219232;58;1602;-27
2023/08/29 04:49:13;;;;;;;;;;;;;;;;;;2219776;58;1656;-27
2023/08/29 04:51:43;;;;;;;;;;;;;;;;;;2220598;59;2277;-26
2023/08/29 04:54:13;;;;;;;;;;;;;;;;;;2218541;58;2672;-26
2023/08/29 04:56:44;;;;;;;;;;;;;;;;;;2218890;58;1772;-26
2023/08/29 04:59:14;;;;;;;;;;;;;;;;;;2219032;66;2208;-26
2023/08/29 05:01:44;;;;;;;;;;;;;;;;;;2218937;58;1818;-26
2023/08/29 05:04:15;;;;;;;;;;;;;;;;;;2214586;66;1910;-27
2023/08/29 05:06:45;;;;;;;;;;;;;;;;;;2218741;66;1743;-26
2023/08/29 05:09:16;;;;;;;;;;;;;;;;;;2218714;66;1864;-27
2023/08/29 05:11:46;;;;;;;;;;;;;;;;;;2218916;58;2239;-27
2023/08/29 05:14:16;;;;;;;;;;;;;;;;;;2218956;66;1938;-27
2023/08/29 05:16:49;;;;;;;;;;;;;;;;;;2218626;66;1769;-26
2023/08/29 05:19:19;;;;;;;;;;;;;;;;;;2218913;66;1953;-26
2023/08/29 05:21:50;;;;;;;;;;;;;;;;;;2220124;66;1757;-27
2023/08/29 05:24:20;;;;;;;;;;;;;;;;;;2219137;58;1771;-26
2023/08/29 05:26:50;;;;;;;;;;;;;;;;;;2219076;58;1749;-27
2023/08/29 05:29:21;;;;;;;;;;;;;;;;;;2218530;58;2680;-27
2023/08/29 05:31:51;;;;;;;;;;;;;;;;;;2218873;66;1936;-27
2023/08/29 05:34:21;;;;;;;;;;;;;;;;;;2218242;58;1970;-26
2023/08/29 05:36:57;;;;;;;;;;;;;;;;;;2215055;66;2012;-26
2023/08/29 05:39:27;;;;;;;;;;;;;;;;;;2218919;66;2588;-27
2023/08/29 05:41:58;;;;;;;;;;;;;;;;;;2214116;59;1568;-26
2023/08/29 05:44:28;;;;;;;;;;;;;;;;;;2218767;58;2445;-26
2023/08/29 05:46:58;;;;;;;;;;;;;;;;;;2218832;58;2045;-26
2023/08/29 05:49:28;;;;;;;;;;;;;;;;;;2224469;53;2376;-20
2023/08/29 05:51:59;;;;;;;;;;;;;;;;;;2220284;58;2511;-21
2023/08/29 05:54:29;;;;;;;;;;;;;;;;;;2221029;58;2226;-20
2023/08/29 05:56:59;;;;;;;;;;;;;;;;;;2221053;58;1646;-20
2023/08/29 05:59:30;;;;;;;;;;;;;;;;;;2220428;66;2012;-21
2023/08/29 06:02:00;;;;;;;;;;;;;;;;;;2221477;58;1817;-20
2023/08/29 06:04:31;;;;;;;;;;;;;;;;;;2219041;66;2119;-20
2023/08/29 06:07:05;;;;;;;;;;;;;;;;;;2221562;66;1746;-20
2023/08/29 06:09:35;;;;;;;;;;;;;;;;;;2220674;66;2748;-20
2023/08/29 06:12:06;;;;;;;;;;;;;;;;;;2221238;58;1971;-20
2023/08/29 06:14:36;;;;;;;;;;;;;;;;;;2221700;59;1456;-20
2023/08/29 06:17:09;;;;;;;;;;;;;;;;;;2217773;66;2116;-20
2023/08/29 06:19:40;;;;;;;;;;;;;;;;;;2221737;66;1802;-20
2023/08/29 06:22:10;;;;;;;;;;;;;;;;;;2221130;66;2363;-20
2023/08/29 06:24:45;;;;;;;;;;;;;;;;;;2219336;66;1836;-20
2023/08/29 06:27:15;;;;;;;;;;;;;;;;;;2218674;58;2339;-20
2023/08/29 06:29:45;;;;;;;;;;;;;;;;;;2221193;66;2724;-20
2023/08/29 06:32:15;;;;;;;;;;;;;;;;;;2218230;58;1913;-20
2023/08/29 06:34:46;;;;;;;;;;;;;;;;;;2218924;59;2406;-20
2023/08/29 06:37:16;;;;;;;;;;;;;;;;;;2221033;58;1686;-20
2023/08/29 06:39:46;;;;;;;;;;;;;;;;;;2222240;66;1844;-20
2023/08/29 06:42:16;;;;;;;;;;;;;;;;;;2221536;66;2528;-20
2023/08/29 06:44:47;;;;;;;;;;;;;;;;;;2221185;58;2690;-20
2023/08/29 06:47:17;;;;;;;;;;;;;;;;;;2218820;59;2556;-20
2023/08/29 06:49:47;;;;;;;;;;;;;;;;;;2222363;58;1519;-20
2023/08/29 06:52:17;;;;;;;;;;;;;;;;;;2221162;58;2388;-20
2023/08/29 06:54:48;;;;;;;;;;;;;;;;;;2220572;66;2202;-20
2023/08/29 06:57:18;;;;;;;;;;;;;;;;;;2215252;59;2181;-20
2023/08/29 06:59:48;;;;;;;;;;;;;;;;;;2222003;58;1878;-20
2023/08/29 07:02:18;;;;;;;;;;;;;;;;;;2217429;66;2541;-20
2023/08/29 07:04:49;;;;;;;;;;;;;;;;;;2221912;66;1752;-20
2023/08/29 07:07:20;;;;;;;;;;;;;;;;;;2220958;66;1895;-20
2023/08/29 07:09:50;;;;;;;;;;;;;;;;;;2219480;66;2158;-20
2023/08/29 07:12:20;;;;;;;;;;;;;;;;;;2217039;59;1947;-20
2023/08/29 07:14:50;;;;;;;;;;;;;;;;;;2222025;59;1941;-20
2023/08/29 07:17:21;;;;;;;;;;;;;;;;;;2221321;66;2387;-21
2023/08/29 07:19:51;;;;;;;;;;;;;;;;;;2218413;66;2195;-21
2023/08/29 07:22:21;;;;;;;;;;;;;;;;;;2221619;66;1483;-21
2023/08/29 07:24:52;;;;;;;;;;;;;;;;;;2217735;66;1845;-21
2023/08/29 07:27:22;;;;;;;;;;;;;;;;;;2221901;58;2374;-21
2023/08/29 07:29:55;;;;;;;;;;;;;;;;;;2220967;58;1970;-21
2023/08/29 07:32:26;;;;;;;;;;;;;;;;;;2221926;58;2265;-21
2023/08/29 07:34:57;;;;;;;;;;;;;;;;;;2221418;66;1998;-21
2023/08/29 07:37:27;;;;;;;;;;;;;;;;;;2221923;58;1311;-20
2023/08/29 07:39:57;;;;;;;;;;;;;;;;;;2218391;59;1913;-20
2023/08/29 07:42:27;;;;;;;;;;;;;;;;;;2220976;66;1155;-20
2023/08/29 07:44:58;;;;;;;;;;;;;;;;;;2218473;58;1503;-20
2023/08/29 07:47:28;;;;;;;;;;;;;;;;;;2217534;66;1387;-20
2023/08/29 07:49:58;;;;;;;;;;;;;;;;;;2222364;58;2055;-20
2023/08/29 07:52:28;;;;;;;;;;;;;;;;;;2218689;58;1921;-20
2023/08/29 07:54:59;;;;;;;;;;;;;;;;;;2220898;59;2774;-20
2023/08/29 07:57:29;;;;;;;;;;;;;;;;;;2221221;58;2345;-20
2023/08/29 07:59:59;;;;;;;;;;;;;;;;;;2221160;58;1890;-20
2023/08/29 08:02:30;;;;;;;;;;;;;;;;;;2221737;66;1447;-20
2023/08/29 08:05:01;;;;;;;;;;;;;;;;;;2222309;66;1975;-20
2023/08/29 08:07:31;;;;;;;;;;;;;;;;;;2216116;66;1690;-21
2023/08/29 08:10:04;;;;;;;;;;;;;;;;;;2222269;66;1197;-24
2023/08/29 08:12:35;;;;;;;;;;;;;;;;;;2215489;59;1936;-24
2023/08/29 08:15:06;;;;;;;;;;;;;;;;;;2222557;66;1779;-23
2023/08/29 08:17:37;;;;;;;;;;;;;;;;;;2218793;66;1552;-24
2023/08/29 08:20:10;;;;;;;;;;;;;;;;;;2218470;66;1138;-23
2023/08/29 08:22:41;;;;;;;;;;;;;;;;;;2221094;66;1723;-25
2023/08/29 08:25:11;;;;;;;;;;;;;;;;;;2220405;66;1309;-24
2023/08/29 08:27:41;;;;;;;;;;;;;;;;;;2222222;58;1379;-24
2023/08/29 08:30:12;;;;;;;;;;;;;;;;;;2221716;66;1561;-24
2023/08/29 08:32:43;;;;;;;;;;;;;;;;;;2215698;59;1997;-24
2023/08/29 08:35:13;;;;;;;;;;;;;;;;;;2220596;66;1390;-25
2023/08/29 08:37:43;;;;;;;;;;;;;;;;;;2221429;58;2165;-25
2023/08/29 08:40:15;;;;;;;;;;;;;;;;;;2221431;58;1179;-25
2023/08/29 08:42:45;;;;;;;;;;;;;;;;;;2221894;66;1396;-23
2023/08/29 08:45:16;;;;;;;;;;;;;;;;;;2221749;58;1821;-24
2023/08/29 08:47:46;;;;;;;;;;;;;;;;;;2218950;66;1791;-23
2023/08/29 08:50:18;;;;;;;;;;;;;;;;;;2218513;58;1680;-23
2023/08/29 08:52:54;;;;;;;;;;;;;;;;;;2222091;58;1910;-24
2023/08/29 08:55:25;;;;;;;;;;;;;;;;;;2218946;58;2533;-23
2023/08/29 08:57:55;;;;;;;;;;;;;;;;;;2220741;59;3279;-23
2023/08/29 09:00:26;;;;;;;;;;;;;;;;;;2221790;58;2407;-23
2023/08/29 09:02:57;;;;;;;;;;;;;;;;;;2218146;66;2163;-23
2023/08/29 09:05:28;;;;;;;;;;;;;;;;;;2222438;66;2189;-24
2023/08/29 09:07:59;;;;;;;;;;;;;;;;;;2220817;66;1493;-23
2023/08/29 09:10:32;;;;;;;;;;;;;;;;;;2221382;66;2300;-23
2023/08/29 09:13:02;;;;;;;;;;;;;;;;;;2217942;58;1804;-24
2023/08/29 09:15:34;;;;;;;;;;;;;;;;;;2218705;66;2315;-23
2023/08/29 09:18:04;;;;;;;;;;;;;;;;;;2221389;66;1776;-24
2023/08/29 09:20:35;;;;;;;;;;;;;;;;;;2218335;66;1842;-23
2023/08/29 09:23:18;;;;;;;;;;;;;;;;;;2217995;66;2408;-24
2023/08/29 09:25:55;;;;;;;;;;;;;;;;;;2221633;58;1881;-23
2023/08/29 09:28:27;;;;;;;;;;;;;;;;;;2221413;58;2131;-23
2023/08/29 09:31:05;;;;;;;;;;;;;;;;;;2221081;58;2269;-23
2023/08/29 09:33:36;;;;;;;;;;;;;;;;;;2217870;59;2127;-23
2023/08/29 09:36:07;;;;;;;;;;;;;;;;;;2221342;66;2247;-23
2023/08/29 09:38:38;;;;;;;;;;;;;;;;;;2221016;58;1994;-23
2023/08/29 09:41:14;;;;;;;;;;;;;;;;;;2221498;66;2557;-24
2023/08/29 09:43:48;;;;;;;;;;;;;;;;;;2220988;59;2881;-23
2023/08/29 09:46:22;;;;;;;;;;;;;;;;;;2217191;58;1943;-24
2023/08/29 09:48:55;;;;;;;;;;;;;;;;;;2221449;58;2348;-23
2023/08/29 09:51:28;;;;;;;;;;;;;;;;;;2220299;58;2875;-23
2023/08/29 09:54:00;;;;;;;;;;;;;;;;;;2219852;58;1757;-22
2023/08/29 09:56:32;;;;;;;;;;;;;;;;;;2219871;58;2465;-22
2023/08/29 09:59:03;;;;;;;;;;;;;;;;;;2218978;66;2645;-22
2023/08/29 10:01:33;;;;;;;;;;;;;;;;;;2216969;58;1869;-23
2023/08/29 10:04:05;;;;;;;;;;;;;;;;;;2215613;66;1812;-23
2023/08/29 10:06:36;;;;;;;;;;;;;;;;;;2219714;66;1830;-24
2023/08/29 10:09:06;;;;;;;;;;;;;;;;;;2217084;66;1885;-24
2023/08/29 10:11:37;;;;;;;;;;;;;;;;;;2216817;66;1988;-22
2023/08/29 10:14:11;;;;;;;;;;;;;;;;;;2221584;66;2199;-23
2023/08/29 10:16:41;;;;;;;;;;;;;;;;;;2221197;63;2037;-24
2023/08/29 10:19:13;;;;;;;;;;;;;;;;;;2221203;66;2010;-23
2023/08/29 10:21:43;;;;;;;;;;;;;;;;;;2221755;66;1687;-23
2023/08/29 10:24:14;;;;;;;;;;;;;;;;;;2220647;66;1838;-24
2023/08/29 10:26:44;;;;;;;;;;;;;;;;;;2221078;58;1332;-23
2023/08/29 10:29:15;;;;;;;;;;;;;;;;;;2217976;58;1774;-22
2023/08/29 10:31:45;;;;;;;;;;;;;;;;;;2221801;58;1909;-20
2023/08/29 10:34:16;;;;;;;;;;;;;;;;;;2221448;58;1697;-20
2023/08/29 10:36:46;;;;;;;;;;;;;;;;;;2220921;66;1673;-20
2023/08/29 10:39:17;;;;;;;;;;;;;;;;;;2218048;58;1691;-20
2023/08/29 10:41:48;;;;;;;;;;;;;;;;;;2221374;66;1460;-20
2023/08/29 10:44:40;;;;;;;;;;;;;;;;;;2218310;58;1876;-20
2023/08/29 10:47:23;;;;;;;;;;;;;;;;;;2221326;66;1648;-20
2023/08/29 10:49:58;;;;;;;;;;;;;;;;;;2218621;58;1661;-20
2023/08/29 10:52:34;;;;;;;;;;;;;;;;;;2221571;58;1937;-20
2023/08/29 10:55:09;;;;;;;;;;;;;;;;;;2221653;66;1698;-20
2023/08/29 10:57:39;;;;;;;;;;;;;;;;;;2221331;58;2575;-20
2023/08/29 11:00:14;;;;;;;;;;;;;;;;;;2220364;58;2397;-20
2023/08/29 11:02:44;;;;;;;;;;;;;;;;;;2217391;66;1765;-20
2023/08/29 11:05:15;;;;;;;;;;;;;;;;;;2221929;66;1766;-20
2023/08/29 11:07:46;;;;;;;;;;;;;;;;;;2220435;66;1693;-20
2023/08/29 11:10:17;;;;;;;;;;;;;;;;;;2217038;66;1628;-20
2023/08/29 11:13:09;;;;;;;;;;;;;;;;;;2220824;58;1936;-20
2023/08/29 11:15:51;;;;;;;;;;;;;;;;;;2221730;66;1436;-20
2023/08/29 11:18:26;;;;;;;;;;;;;;;;;;2222154;66;1786;-20
2023/08/29 11:20:57;;;;;;;;;;;;;;;;;;2222364;66;1787;-20
2023/08/29 11:23:29;;;;;;;;;;;;;;;;;;2220074;66;1487;-23
2023/08/29 11:25:59;;;;;;;;;;;;;;;;;;2221429;58;1770;-23
2023/08/29 11:28:33;;;;;;;;;;;;;;;;;;2223916;58;1622;-22
2023/08/29 11:31:05;;;;;;;;;;;;;;;;;;2220997;66;1907;-23
2023/08/29 11:33:36;;;;;;;;;;;;;;;;;;2224510;58;1311;-24
2023/08/29 11:36:06;;;;;;;;;;;;;;;;;;2224683;66;1135;-23
2023/08/29 11:38:37;;;;;;;;;;;;;;;;;;2224607;58;1257;-23
2023/08/29 11:41:07;;;;;;;;;;;;;;;;;;2225058;66;2168;-23
2023/08/29 11:43:38;;;;;;;;;;;;;;;;;;2224808;66;2145;-24
2023/08/29 11:46:08;;;;;;;;;;;;;;;;;;2225942;58;1493;-23
2023/08/29 11:48:38;;;;;;;;;;;;;;;;;;2224208;59;1729;-22
2023/08/29 11:51:09;;;;;;;;;;;;;;;;;;2222839;58;1982;-23
2023/08/29 11:53:39;;;;;;;;;;;;;;;;;;2218591;58;1575;-24
2023/08/29 11:56:09;;;;;;;;;;;;;;;;;;2222402;58;1496;-24
2023/08/29 11:58:41;;;;;;;;;;;;;;;;;;2219294;59;2219;-23
2023/08/29 12:01:12;;;;;;;;;;;;;;;;;;2221218;58;2797;-22
2023/08/29 12:03:42;;;;;;;;;;;;;;;;;;2221892;66;1812;-22
2023/08/29 12:06:13;;;;;;;;;;;;;;;;;;2221747;59;2414;-22
2023/08/29 12:08:44;;;;;;;;;;;;;;;;;;2221632;66;2402;-23
2023/08/29 12:11:15;;;;;;;;;;;;;;;;;;2223244;66;2596;-22
2023/08/29 12:14:07;;;;;;;;;;;;;;;;;;2223206;58;2138;-23
2023/08/29 12:16:38;;;;;;;;;;;;;;;;;;2217086;66;2628;-23
2023/08/29 12:19:13;;;;;;;;;;;;;;;;;;2224383;66;1602;-22
2023/08/29 12:21:54;;;;;;;;;;;;;;;;;;2224216;66;1202;-23
2023/08/29 12:24:24;;;;;;;;;;;;;;;;;;2221076;66;1934;-23
2023/08/29 12:26:54;;;;;;;;;;;;;;;;;;2224296;58;1343;-23
2023/08/29 12:29:25;;;;;;;;;;;;;;;;;;2219976;58;1391;-22
2023/08/29 12:31:55;;;;;;;;;;;;;;;;;;2221401;58;1917;-20
2023/08/29 12:34:25;;;;;;;;;;;;;;;;;;2216310;59;1521;-20
2023/08/29 12:36:56;;;;;;;;;;;;;;;;;;2219125;58;1708;-20
2023/08/29 12:39:26;;;;;;;;;;;;;;;;;;2221946;66;1888;-20
2023/08/29 12:42:02;;;;;;;;;;;;;;;;;;2220698;59;1706;-20
2023/08/29 12:44:33;;;;;;;;;;;;;;;;;;2221138;58;1696;-20
2023/08/29 12:47:04;;;;;;;;;;;;;;;;;;2215741;66;1508;-20
2023/08/29 12:49:35;;;;;;;;;;;;;;;;;;2218107;58;1761;-20
2023/08/29 12:52:05;;;;;;;;;;;;;;;;;;2221506;58;1933;-20
2023/08/29 12:54:36;;;;;;;;;;;;;;;;;;2221613;66;1671;-20
2023/08/29 12:57:06;;;;;;;;;;;;;;;;;;2221415;58;1762;-20
2023/08/29 12:59:36;;;;;;;;;;;;;;;;;;2221149;59;2802;-20
2023/08/29 13:02:09;;;;;;;;;;;;;;;;;;2219595;58;2924;-20
2023/08/29 13:04:39;;;;;;;;;;;;;;;;;;2221236;66;2916;-20
2023/08/29 13:07:10;;;;;;;;;;;;;;;;;;2217062;66;2527;-20
2023/08/29 13:09:41;;;;;;;;;;;;;;;;;;2221297;66;2062;-20
2023/08/29 13:12:11;;;;;;;;;;;;;;;;;;2221210;58;2924;-20
2023/08/29 13:14:41;;;;;;;;;;;;;;;;;;2217409;59;1832;-20
2023/08/29 13:17:12;;;;;;;;;;;;;;;;;;2217606;59;1911;-20
2023/08/29 13:19:42;;;;;;;;;;;;;;;;;;2220511;66;1895;-20
2023/08/29 13:22:18;;;;;;;;;;;;;;;;;;2221055;66;1591;-20
2023/08/29 13:24:48;;;;;;;;;;;;;;;;;;2220257;66;2018;-22
2023/08/29 13:27:18;;;;;;;;;;;;;;;;;;2220809;58;1908;-22
2023/08/29 13:29:49;;;;;;;;;;;;;;;;;;2220653;58;2348;-22
2023/08/29 13:32:19;;;;;;;;;;;;;;;;;;2221020;58;1978;-22
2023/08/29 13:34:49;;;;;;;;;;;;;;;;;;2217809;66;3301;-22
2023/08/29 13:37:20;;;;;;;;;;;;;;;;;;2217444;58;1783;-22
2023/08/29 13:39:54;;;;;;;;;;;;;;;;;;2220162;66;1925;-23
2023/08/29 13:42:25;;;;;;;;;;;;;;;;;;2221074;66;2007;-22
2023/08/29 13:44:56;;;;;;;;;;;;;;;;;;2219946;58;2247;-23
2023/08/29 13:47:27;;;;;;;;;;;;;;;;;;2217362;66;1476;-22
2023/08/29 13:49:57;;;;;;;;;;;;;;;;;;2219504;58;1995;-22
2023/08/29 13:52:27;;;;;;;;;;;;;;;;;;2220363;58;1984;-23
2023/08/29 13:54:57;;;;;;;;;;;;;;;;;;2219753;66;1916;-22
2023/08/29 13:57:28;;;;;;;;;;;;;;;;;;2216502;59;2197;-22
2023/08/29 13:59:58;;;;;;;;;;;;;;;;;;2219460;58;4102;-22
2023/08/29 14:02:29;;;;;;;;;;;;;;;;;;2218868;66;3079;-23
2023/08/29 14:04:59;;;;;;;;;;;;;;;;;;2220076;66;1989;-23
2023/08/29 14:07:29;;;;;;;;;;;;;;;;;;2217047;59;1730;-22
2023/08/29 14:09:59;;;;;;;;;;;;;;;;;;2220091;66;1839;-22
2023/08/29 14:12:30;;;;;;;;;;;;;;;;;;2220354;58;1935;-23
2023/08/29 14:15:00;;;;;;;;;;;;;;;;;;2219536;66;1473;-22
2023/08/29 14:17:30;;;;;;;;;;;;;;;;;;2216917;66;1708;-23
2023/08/29 14:20:04;;;;;;;;;;;;;;;;;;2220221;66;1430;-22
2023/08/29 14:22:35;;;;;;;;;;;;;;;;;;2217158;58;1768;-23
2023/08/29 14:25:05;;;;;;;;;;;;;;;;;;2214528;66;2327;-22
2023/08/29 14:27:35;;;;;;;;;;;;;;;;;;2220003;58;1670;-23
2023/08/29 14:30:06;;;;;;;;;;;;;;;;;;2220245;59;1411;-23
2023/08/29 14:32:36;;;;;;;;;;;;;;;;;;2219315;58;2291;-23
2023/08/29 14:35:07;;;;;;;;;;;;;;;;;;2219860;66;1749;-19
2023/08/29 14:37:38;;;;;;;;;;;;;;;;;;2220019;58;1800;-19
2023/08/29 14:40:08;;;;;;;;;;;;;;;;;;2221071;66;1591;-19
2023/08/29 14:42:42;;;;;;;;;;;;;;;;;;2220588;66;1407;-19
2023/08/29 14:45:12;;;;;;;;;;;;;;;;;;2220655;58;1991;-19
2023/08/29 14:47:42;;;;;;;;;;;;;;;;;;2221005;66;1567;-20
2023/08/29 14:50:13;;;;;;;;;;;;;;;;;;2221529;58;1925;-20
2023/08/29 14:52:43;;;;;;;;;;;;;;;;;;2217172;58;1999;-22
2023/08/29 14:55:13;;;;;;;;;;;;;;;;;;2220952;66;1391;-22
2023/08/29 14:57:44;;;;;;;;;;;;;;;;;;2221963;58;1560;-22
2023/08/29 15:00:15;;;;;;;;;;;;;;;;;;2217512;58;4820;-22
2023/08/29 15:02:45;;;;;;;;;;;;;;;;;;2217383;66;2502;-24
2023/08/29 15:05:19;;;;;;;;;;;;;;;;;;2218495;59;2222;-22
2023/08/29 15:07:49;;;;;;;;;;;;;;;;;;2221063;66;1970;-23
2023/08/29 15:10:19;;;;;;;;;;;;;;;;;;2221511;66;1990;-22
2023/08/29 15:12:49;;;;;;;;;;;;;;;;;;2217680;59;2270;-22
2023/08/29 15:15:20;;;;;;;;;;;;;;;;;;2221269;66;1712;-20
2023/08/29 15:17:50;;;;;;;;;;;;;;;;;;2222116;66;2560;-20
2023/08/29 15:20:22;;;;;;;;;;;;;;;;;;2221122;66;2388;-20
2023/08/29 15:22:52;;;;;;;;;;;;;;;;;;2222393;66;1587;-20
2023/08/29 15:25:23;;;;;;;;;;;;;;;;;;2221288;66;2184;-23
2023/08/29 15:27:53;;;;;;;;;;;;;;;;;;2217873;58;1741;-20
2023/08/29 15:30:23;;;;;;;;;;;;;;;;;;2218660;58;1678;-20
2023/08/29 15:32:54;;;;;;;;;;;;;;;;;;2217637;59;2011;-20
2023/08/29 15:35:24;;;;;;;;;;;;;;;;;;2220781;66;1954;-20
2023/08/29 15:37:56;;;;;;;;;;;;;;;;;;2220890;58;2219;-20
2023/08/29 15:40:26;;;;;;;;;;;;;;;;;;2219131;66;1873;-20
2023/08/29 15:42:57;;;;;;;;;;;;;;;;;;2221299;66;1368;-20
2023/08/29 15:45:27;;;;;;;;;;;;;;;;;;2221553;58;1503;-20
2023/08/29 15:47:58;;;;;;;;;;;;;;;;;;2218086;66;1919;-20
2023/08/29 15:50:28;;;;;;;;;;;;;;;;;;2220037;58;2176;-20
2023/08/29 15:53:00;;;;;;;;;;;;;;;;;;2218218;58;1991;-20
2023/08/29 15:55:31;;;;;;;;;;;;;;;;;;2218327;66;1463;-22
2023/08/29 15:58:02;;;;;;;;;;;;;;;;;;2218919;66;1884;-23
2023/08/29 16:00:35;;;;;;;;;;;;;;;;;;2222116;58;1647;-22
2023/08/29 16:03:06;;;;;;;;;;;;;;;;;;2217516;66;2694;-24
2023/08/29 16:05:36;;;;;;;;;;;;;;;;;;2218241;66;2397;-22
2023/08/29 16:08:08;;;;;;;;;;;;;;;;;;2220423;66;2134;-22
2023/08/29 16:10:39;;;;;;;;;;;;;;;;;;2218777;66;2644;-22
2023/08/29 16:13:10;;;;;;;;;;;;;;;;;;2220681;58;2307;-22
2023/08/29 16:15:40;;;;;;;;;;;;;;;;;;2222502;66;2128;-23
2023/08/29 16:18:10;;;;;;;;;;;;;;;;;;2221061;66;1837;-23
2023/08/29 16:20:41;;;;;;;;;;;;;;;;;;2221538;66;2805;-23
2023/08/29 16:23:11;;;;;;;;;;;;;;;;;;2221160;66;2128;-22
2023/08/29 16:25:41;;;;;;;;;;;;;;;;;;2219187;66;1668;-23
2023/08/29 16:28:12;;;;;;;;;;;;;;;;;;2217715;58;2093;-22
2023/08/29 16:30:42;;;;;;;;;;;;;;;;;;2218610;58;1795;-23
2023/08/29 16:33:12;;;;;;;;;;;;;;;;;;2216652;59;1937;-27
2023/08/29 16:35:43;;;;;;;;;;;;;;;;;;2220941;66;2037;-22
2023/08/29 16:38:14;;;;;;;;;;;;;;;;;;2220786;58;1530;-22
2023/08/29 16:40:44;;;;;;;;;;;;;;;;;;2221609;58;1700;-23
2023/08/29 16:43:14;;;;;;;;;;;;;;;;;;2221651;66;2006;-22
2023/08/29 16:45:47;;;;;;;;;;;;;;;;;;2221944;58;1705;-23
2023/08/29 16:48:19;;;;;;;;;;;;;;;;;;2220718;58;2016;-22
2023/08/29 16:50:52;;;;;;;;;;;;;;;;;;2221739;58;1909;-23
2023/08/29 16:53:23;;;;;;;;;;;;;;;;;;2221372;58;1928;-22
2023/08/29 16:55:53;;;;;;;;;;;;;;;;;;2218274;59;1402;-20
2023/08/29 16:58:23;;;;;;;;;;;;;;;;;;2217675;66;1825;-20
2023/08/29 17:00:53;;;;;;;;;;;;;;;;;;2221209;58;1954;-20
2023/08/29 17:03:24;;;;;;;;;;;;;;;;;;2221332;59;2248;-20
2023/08/29 17:05:55;;;;;;;;;;;;;;;;;;2219700;66;2781;-20
2023/08/29 17:08:25;;;;;;;;;;;;;;;;;;2220208;66;2050;-20
2023/08/29 17:10:56;;;;;;;;;;;;;;;;;;2220125;66;2151;-20
2023/08/29 17:13:26;;;;;;;;;;;;;;;;;;2221905;58;1788;-20
2023/08/29 17:15:57;;;;;;;;;;;;;;;;;;2221355;66;1755;-19
2023/08/29 17:18:27;;;;;;;;;;;;;;;;;;2221060;66;2216;-19
2023/08/29 17:20:57;;;;;;;;;;;;;;;;;;2221009;66;3870;-19
2023/08/29 17:23:27;;;;;;;;;;;;;;;;;;2221852;66;2014;-19
2023/08/29 17:25:58;;;;;;;;;;;;;;;;;;2220669;58;1628;-19
2023/08/29 17:28:28;;;;;;;;;;;;;;;;;;2217434;66;2757;-21
2023/08/29 17:30:58;;;;;;;;;;;;;;;;;;2220193;58;2232;-19